Time;durP1;ratioP1;P1;durP2;ratioP2;P2;SDS_P1;SDS_P2;PMS_P1;PMS_P2;Temp;Humidity;BMP_temperature;BMP_pressure;BME280_temperature;BME280_humidity;BME280_pressure;Samples;Min_cycle;Max_cycle;Signal;HPM_P1;HPM_P2
2023/05/27 00:00:05;;;;;;;14.63;3.53;;;7.70;99.90;;;;;;5078576;28;20047;-70
2023/05/27 00:02:30;;;;;;;24.48;3.60;;;7.70;99.90;;;;;;5113339;28;20285;-69
2023/05/27 00:04:56;;;;;;;29.27;5.38;;;7.70;99.90;;;;;;5113277;28;20119;-69
2023/05/27 00:07:22;;;;;;;28.60;5.22;;;7.70;99.90;;;;;;5094899;28;20052;-69
2023/05/27 00:09:48;;;;;;;20.40;3.97;;;7.60;99.90;;;;;;5098155;28;20048;-69
2023/05/27 00:12:13;;;;;;;21.90;4.25;;;7.60;99.90;;;;;;5117576;28;20412;-70
2023/05/27 00:14:39;;;;;;;22.67;5.38;;;7.60;99.90;;;;;;5117818;28;20043;-69
2023/05/27 00:17:05;;;;;;;27.83;4.93;;;7.60;99.90;;;;;;5117005;28;20044;-70
2023/05/27 00:19:31;;;;;;;25.20;5.97;;;7.60;99.90;;;;;;5116908;28;20043;-69
2023/05/27 00:21:57;;;;;;;23.35;4.10;;;7.50;99.90;;;;;;5099018;28;20035;-69
2023/05/27 00:24:23;;;;;;;21.65;3.90;;;7.50;99.90;;;;;;5116879;28;20043;-69
2023/05/27 00:26:49;;;;;;;18.25;3.47;;;7.40;99.90;;;;;;5116896;28;20121;-69
2023/05/27 00:29:16;;;;;;;21.27;3.83;;;7.40;99.90;;;;;;5116805;28;20134;-69
2023/05/27 00:31:42;;;;;;;24.77;3.90;;;7.40;99.90;;;;;;5116901;28;20096;-70
2023/05/27 00:34:08;;;;;;;23.42;4.72;;;7.30;99.90;;;;;;5116731;28;20446;-69
2023/05/27 00:36:35;;;;;;;25.35;4.10;;;7.30;99.90;;;;;;5116529;28;20046;-69
2023/05/27 00:39:01;;;;;;;23.27;4.53;;;7.30;99.90;;;;;;5099130;28;20541;-69
2023/05/27 00:41:26;;;;;;;20.13;4.38;;;7.30;99.90;;;;;;5116473;28;20090;-69
2023/05/27 00:43:53;;;;;;;20.45;3.78;;;7.30;99.90;;;;;;5098775;28;20080;-69
2023/05/27 00:46:19;;;;;;;27.88;4.07;;;7.30;99.90;;;;;;5116418;28;20046;-70
2023/05/27 00:48:47;;;;;;;16.23;3.78;;;7.20;99.90;;;;;;5081684;28;20130;-70
2023/05/27 00:51:12;;;;;;;25.45;4.70;;;7.20;99.90;;;;;;5116487;28;20119;-69
2023/05/27 00:53:43;;;;;;;20.60;4.65;;;7.10;99.90;;;;;;5116653;28;20046;-69
2023/05/27 00:56:15;;;;;;;26.83;4.32;;;7.20;99.90;;;;;;5098577;28;20051;-69
2023/05/27 00:58:42;;;;;;;21.45;4.25;;;7.10;99.90;;;;;;5116845;28;20083;-69
2023/05/27 01:01:08;;;;;;;21.05;4.43;;;7.10;99.90;;;;;;5098176;28;20051;-69
2023/05/27 01:03:35;;;;;;;23.67;4.10;;;7.10;99.90;;;;;;5116801;28;20386;-70
2023/05/27 01:06:14;;;;;;;29.88;4.35;;;7.10;99.90;;;;;;5097437;28;20077;-70
2023/05/27 01:08:59;;;;;;;22.85;3.85;;;7.10;99.90;;;;;;5116134;28;20087;-69
2023/05/27 01:11:39;;;;;;;28.02;4.18;;;7.10;99.90;;;;;;5098615;28;20052;-69
2023/05/27 01:14:10;;;;;;;29.30;5.22;;;7.00;99.90;;;;;;5098823;28;20131;-69
2023/05/27 01:16:43;;;;;;;23.75;4.32;;;7.10;99.90;;;;;;5115707;28;20491;-69
2023/05/27 01:19:14;;;;;;;22.60;4.30;;;7.00;99.90;;;;;;5098880;28;20039;-70
2023/05/27 01:21:44;;;;;;;24.67;3.97;;;7.00;99.90;;;;;;5116724;28;20040;-70
2023/05/27 01:24:10;;;;;;;27.23;5.63;;;7.00;99.90;;;;;;5098473;28;20051;-70
2023/05/27 01:26:37;;;;;;;26.80;5.47;;;6.90;99.90;;;;;;5081056;28;20055;-68
2023/05/27 01:29:03;;;;;;;19.85;4.40;;;6.90;99.90;;;;;;5097647;28;20069;-70
2023/05/27 01:31:41;;;;;;;30.60;5.68;;;6.90;99.90;;;;;;5115724;28;20051;-70
2023/05/27 01:34:09;;;;;;;20.25;5.30;;;6.90;99.90;;;;;;5116442;28;20117;-70
2023/05/27 01:36:53;;;;;;;24.75;5.22;;;6.80;99.90;;;;;;5097671;28;20055;-68
2023/05/27 01:39:19;;;;;;;21.60;4.97;;;6.80;99.90;;;;;;5098390;28;20050;-68
2023/05/27 01:41:46;;;;;;;18.95;4.30;;;6.70;99.90;;;;;;5081433;28;20130;-68
2023/05/27 01:44:17;;;;;;;20.90;4.57;;;6.70;99.90;;;;;;5097182;28;20508;-68
2023/05/27 01:46:43;;;;;;;25.65;4.70;;;6.70;99.90;;;;;;5115218;28;20115;-68
2023/05/27 01:49:09;;;;;;;31.83;6.72;;;6.60;99.90;;;;;;5115871;28;20040;-69
2023/05/27 01:51:35;;;;;;;29.83;5.10;;;6.60;99.90;;;;;;5115371;28;20047;-69
2023/05/27 01:54:00;;;;;;;28.33;4.65;;;6.60;99.90;;;;;;5097116;28;20054;-68
2023/05/27 01:56:26;;;;;;;28.05;5.70;;;6.60;99.90;;;;;;5115240;28;20043;-71
2023/05/27 01:58:52;;;;;;;30.05;6.18;;;6.60;99.90;;;;;;5096957;28;20051;-69
2023/05/27 02:01:17;;;;;;;22.80;4.82;;;6.60;99.90;;;;;;5097070;28;20052;-69
2023/05/27 02:03:43;;;;;;;34.92;5.07;;;6.50;99.90;;;;;;5096902;28;20481;-69
2023/05/27 02:06:09;;;;;;;29.13;5.47;;;6.50;99.90;;;;;;5114936;28;20063;-69
2023/05/27 02:08:35;;;;;;;19.90;4.50;;;6.50;99.90;;;;;;5115449;28;20048;-69
2023/05/27 02:11:00;;;;;;;38.88;5.80;;;6.50;99.90;;;;;;5115060;28;20044;-69
2023/05/27 02:13:26;;;;;;;25.80;5.35;;;6.60;99.90;;;;;;5115392;28;20043;-74
2023/05/27 02:15:52;;;;;;;32.65;5.47;;;6.50;99.90;;;;;;5079980;28;20130;-69
2023/05/27 02:18:20;;;;;;;26.98;5.15;;;6.40;99.90;;;;;;5096684;28;20130;-69
2023/05/27 02:20:46;;;;;;;31.77;6.55;;;6.40;99.90;;;;;;5096961;28;20043;-70
2023/05/27 02:23:12;;;;;;;27.98;5.53;;;6.40;99.90;;;;;;5096737;28;20050;-69
2023/05/27 02:25:38;;;;;;;20.70;5.13;;;6.40;99.90;;;;;;5114203;28;20396;-69
2023/05/27 02:28:03;;;;;;;28.95;6.00;;;6.60;99.90;;;;;;5114662;28;20057;-70
2023/05/27 02:30:30;;;;;;;25.98;5.07;;;6.40;99.90;;;;;;5114551;28;20136;-71
2023/05/27 02:32:57;;;;;;;25.60;5.75;;;6.30;99.90;;;;;;5114875;28;20397;-69
2023/05/27 02:35:23;;;;;;;36.38;5.50;;;6.30;99.90;;;;;;5115276;28;20047;-69
2023/05/27 02:37:48;;;;;;;23.58;5.05;;;6.30;99.90;;;;;;5080440;28;20366;-69
2023/05/27 02:40:32;;;;;;;27.83;5.53;;;6.30;99.90;;;;;;5080379;28;20469;-69
2023/05/27 02:42:58;;;;;;;31.58;5.53;;;6.30;99.90;;;;;;5080277;28;20427;-70
2023/05/27 02:45:25;;;;;;;31.98;5.78;;;6.30;99.90;;;;;;5114170;28;20039;-70
2023/05/27 02:47:51;;;;;;;33.63;5.23;;;6.40;99.90;;;;;;5095928;28;20132;-70
2023/05/27 02:50:16;;;;;;;30.55;4.78;;;6.40;99.90;;;;;;5096238;28;20130;-69
2023/05/27 02:52:42;;;;;;;34.63;5.05;;;6.40;99.90;;;;;;5114083;28;20047;-69
2023/05/27 02:55:08;;;;;;;24.67;4.78;;;6.30;99.90;;;;;;5095969;28;20043;-70
2023/05/27 02:57:34;;;;;;;24.10;5.13;;;6.50;99.90;;;;;;5079080;28;20066;-70
2023/05/27 03:00:01;;;;;;;27.95;5.20;;;;;;;;;;5096033;28;20089;-70
2023/05/27 03:02:26;;;;;;;26.77;4.75;;;6.40;99.90;;;;;;5114110;28;20426;-70
2023/05/27 03:04:55;;;;;;;29.13;5.40;;;6.40;99.90;;;;;;5113923;28;20143;-70
2023/05/27 03:07:21;;;;;;;30.23;5.07;;;6.60;99.90;;;;;;5113507;28;20564;-69
2023/05/27 03:09:46;;;;;;;31.20;6.57;;;6.50;99.90;;;;;;5095333;28;20139;-69
2023/05/27 03:12:12;;;;;;;27.27;6.03;;;6.60;99.90;;;;;;5078612;28;20044;-69
2023/05/27 03:14:38;;;;;;;29.88;5.55;;;6.70;99.90;;;;;;5113508;28;20043;-69
2023/05/27 03:17:04;;;;;;;26.85;5.57;;;6.70;99.90;;;;;;5095665;28;20044;-69
2023/05/27 03:19:30;;;;;;;29.63;5.80;;;6.90;99.90;;;;;;5078977;28;20051;-69
2023/05/27 03:21:56;;;;;;;27.05;5.47;;;6.80;99.90;;;;;;5079717;28;20043;-69
2023/05/27 03:24:23;;;;;;;24.63;4.53;;;7.20;99.90;;;;;;5113611;28;20047;-69
2023/05/27 03:26:48;;;;;;;31.30;6.03;;;7.00;99.90;;;;;;5113481;28;20123;-69
2023/05/27 03:29:15;;;;;;;24.77;5.60;;;6.90;99.90;;;;;;5095536;28;20461;-69
2023/05/27 03:31:41;;;;;;;35.72;6.07;;;7.30;99.90;;;;;;5095281;28;20507;-69
2023/05/27 03:34:07;;;;;;;29.92;5.13;;;7.30;99.90;;;;;;5095930;28;20055;-69
2023/05/27 03:36:35;;;;;;;32.50;5.90;;;7.30;99.90;;;;;;5095593;28;20047;-68
2023/05/27 03:39:00;;;;;;;25.35;5.60;;;7.20;99.90;;;;;;5095412;28;20075;-68
2023/05/27 03:41:26;;;;;;;29.92;4.90;;;7.40;99.90;;;;;;5078802;28;20055;-68
2023/05/27 03:43:52;;;;;;;25.20;4.78;;;7.30;99.90;;;;;;5114947;28;20465;-69
2023/05/27 03:46:17;;;;;;;32.70;5.32;;;7.30;99.90;;;;;;5099558;28;20089;-68
2023/05/27 03:48:43;;;;;;;33.88;6.38;;;7.40;99.90;;;;;;5117280;28;20040;-69
2023/05/27 03:51:09;;;;;;;21.63;4.95;;;7.40;99.90;;;;;;5100169;28;20039;-69
2023/05/27 03:53:35;;;;;;;17.13;4.35;;;7.60;99.90;;;;;;5099560;28;20040;-68
2023/05/27 03:56:01;;;;;;;28.02;5.15;;;7.40;99.90;;;;;;5099455;28;20083;-69
2023/05/27 03:58:26;;;;;;;25.92;5.03;;;7.70;99.90;;;;;;5099369;28;20453;-68
2023/05/27 04:00:52;;;;;;;25.08;5.50;;;7.70;99.90;;;;;;5117449;28;20048;-68
2023/05/27 04:03:18;;;;;;;32.10;5.43;;;7.70;99.90;;;;;;5099733;28;20124;-68
2023/05/27 04:05:44;;;;;;;24.85;5.25;;;7.90;99.90;;;;;;5117309;28;20047;-68
2023/05/27 04:08:10;;;;;;;27.92;6.75;;;7.70;99.90;;;;;;5082558;28;20400;-68
2023/05/27 04:10:35;;;;;;;26.13;4.63;;;7.60;99.90;;;;;;5117310;28;20127;-68
2023/05/27 04:13:01;;;;;;;32.42;5.13;;;7.60;99.90;;;;;;5099936;28;20050;-68
2023/05/27 04:15:27;;;;;;;27.65;4.93;;;7.60;99.90;;;;;;5117687;28;20134;-69
2023/05/27 04:17:52;;;;;;;26.77;5.53;;;7.80;99.90;;;;;;5099483;28;20051;-70
2023/05/27 04:20:18;;;;;;;26.33;5.00;;;7.90;99.90;;;;;;5081987;28;20051;-70
2023/05/27 04:22:44;;;;;;;27.50;5.82;;;7.70;99.90;;;;;;5117538;28;20112;-72
2023/05/27 04:25:10;;;;;;;29.20;4.80;;;7.90;99.90;;;;;;5082069;28;20050;-69
2023/05/27 04:27:36;;;;;;;28.58;5.70;;;8.00;99.90;;;;;;5098751;28;20043;-68
2023/05/27 04:30:04;;;;;;;27.97;6.00;;;8.10;99.90;;;;;;5117745;28;20146;-69
2023/05/27 04:32:37;;;;;;;26.92;5.22;;;7.90;99.90;;;;;;5116999;28;20074;-69
2023/05/27 04:35:04;;;;;;;23.33;5.03;;;8.10;99.90;;;;;;5098805;28;20483;-68
2023/05/27 04:37:30;;;;;;;30.80;5.80;;;8.00;99.90;;;;;;5099562;28;20101;-68
2023/05/27 04:39:56;;;;;;;26.10;4.95;;;8.00;99.90;;;;;;5117190;28;20415;-68
2023/05/27 04:42:25;;;;;;;28.95;5.88;;;8.00;99.90;;;;;;5116660;28;20056;-69
2023/05/27 04:44:51;;;;;;;27.27;5.50;;;8.00;99.90;;;;;;5098428;28;20051;-69
2023/05/27 04:47:17;;;;;;;31.95;5.53;;;8.00;99.90;;;;;;5098287;28;20043;-69
2023/05/27 04:49:46;;;;;;;34.88;6.55;;;8.20;99.90;;;;;;5081756;28;20130;-69
2023/05/27 04:52:14;;;;;;;30.98;5.07;;;8.10;99.90;;;;;;5116426;28;20047;-70
2023/05/27 04:54:40;;;;;;;25.13;5.53;;;8.00;99.90;;;;;;5098464;28;20047;-68
2023/05/27 04:57:06;;;;;;;24.05;4.78;;;8.20;99.90;;;;;;5116374;28;20333;-70
2023/05/27 04:59:58;;;;;;;33.65;5.75;;;8.20;99.90;;;;;;5098307;28;20047;-69
2023/05/27 05:02:33;;;;;;;19.83;5.28;;;8.40;99.90;;;;;;5116883;28;20039;-69
2023/05/27 05:05:02;;;;;;;22.25;5.60;;;8.50;99.90;;;;;;5116827;28;20079;-69
2023/05/27 05:07:28;;;;;;;23.88;5.43;;;8.40;99.90;;;;;;5082363;28;20050;-69
2023/05/27 05:09:54;;;;;;;25.00;5.43;;;8.50;99.90;;;;;;5116154;28;20043;-71
2023/05/27 05:12:20;;;;;;;22.83;4.63;;;8.50;99.90;;;;;;5116664;28;20133;-69
2023/05/27 05:14:46;;;;;;;26.55;5.68;;;8.70;99.90;;;;;;5098093;28;20059;-69
2023/05/27 05:17:11;;;;;;;27.20;5.38;;;8.70;99.90;;;;;;5098352;28;20081;-69
2023/05/27 05:19:38;;;;;;;32.70;5.07;;;8.80;99.90;;;;;;5081189;28;20380;-69
2023/05/27 05:22:04;;;;;;;24.77;4.38;;;8.90;99.90;;;;;;5115883;28;20096;-70
2023/05/27 05:24:30;;;;;;;24.17;4.82;;;8.90;99.90;;;;;;5098465;28;20048;-69
2023/05/27 05:26:56;;;;;;;26.65;4.35;;;9.10;99.90;;;;;;5115898;28;20542;-69
2023/05/27 05:29:21;;;;;;;27.85;5.32;;;9.30;99.90;;;;;;5097801;28;20043;-70
2023/05/27 05:31:47;;;;;;;24.73;4.43;;;9.30;99.90;;;;;;5098241;28;20434;-69
2023/05/27 05:34:13;;;;;;;25.50;4.80;;;9.50;99.90;;;;;;5064272;28;20103;-71
2023/05/27 05:36:38;;;;;;;23.20;4.80;;;9.30;99.90;;;;;;5064005;28;20055;-70
2023/05/27 05:39:05;;;;;;;27.45;5.13;;;9.40;99.90;;;;;;5115467;28;20054;-69
2023/05/27 05:41:31;;;;;;;18.13;4.43;;;9.50;99.90;;;;;;5097161;28;20052;-69
2023/05/27 05:43:56;;;;;;;25.02;4.95;;;9.60;99.90;;;;;;5097283;28;20436;-68
2023/05/27 05:46:22;;;;;;;26.65;4.57;;;9.60;99.90;;;;;;5097918;28;20059;-69
2023/05/27 05:48:51;;;;;;;20.35;4.05;;;9.70;99.90;;;;;;5115258;28;20526;-68
2023/05/27 05:51:17;;;;;;;25.52;4.53;;;9.80;99.90;;;;;;5080037;28;20095;-69
2023/05/27 05:53:43;;;;;;;22.50;3.70;;;9.80;99.90;;;;;;5097219;28;20039;-68
2023/05/27 05:56:08;;;;;;;25.60;4.35;;;9.90;99.90;;;;;;5115126;28;20043;-70
2023/05/27 05:58:34;;;;;;;25.80;3.70;;;10.00;99.90;;;;;;5115246;28;20390;-70
2023/05/27 06:01:00;;;;;;;22.40;3.40;;;10.20;99.90;;;;;;5096918;28;20052;-70
2023/05/27 06:03:26;;;;;;;21.42;3.40;;;10.10;99.90;;;;;;5080164;28;20048;-70
2023/05/27 06:05:51;;;;;;;27.73;3.85;;;10.20;99.90;;;;;;5078867;28;20062;-70
2023/05/27 06:08:17;;;;;;;29.38;3.70;;;10.20;99.90;;;;;;5096538;28;20039;-70
2023/05/27 06:10:43;;;;;;;27.05;3.47;;;10.30;99.90;;;;;;5097227;28;20045;-69
2023/05/27 06:13:10;;;;;;;32.00;4.25;;;10.20;99.90;;;;;;5115004;28;20128;-70
2023/05/27 06:15:37;;;;;;;21.33;4.10;;;10.40;99.90;;;;;;5097046;28;20092;-70
2023/05/27 06:18:03;;;;;;;26.00;3.45;;;10.40;99.90;;;;;;5079771;28;20052;-71
2023/05/27 06:20:29;;;;;;;21.63;3.83;;;10.50;99.90;;;;;;5096484;28;20039;-70
2023/05/27 06:22:55;;;;;;;24.95;3.13;;;10.40;99.90;;;;;;5114511;28;20070;-70
2023/05/27 06:25:21;;;;;;;22.83;3.90;;;10.40;99.90;;;;;;5079723;28;20135;-70
2023/05/27 06:27:46;;;;;;;25.13;3.42;;;10.40;99.90;;;;;;5096330;28;20477;-68
2023/05/27 06:30:12;;;;;;;24.60;3.22;;;10.40;99.90;;;;;;5096221;28;20044;-69
2023/05/27 06:32:38;;;;;;;21.15;3.22;;;10.50;99.90;;;;;;5096516;28;20209;-69
2023/05/27 06:35:04;;;;;;;26.30;3.58;;;10.50;99.90;;;;;;5114329;28;20055;-70
2023/05/27 06:37:30;;;;;;;28.33;3.70;;;10.70;99.90;;;;;;5114364;28;20040;-69
2023/05/27 06:39:56;;;;;;;18.75;3.60;;;10.80;99.90;;;;;;5114388;28;20063;-69
2023/05/27 06:42:22;;;;;;;27.90;4.00;;;10.90;99.90;;;;;;5114755;28;20051;-69
2023/05/27 06:44:48;;;;;;;23.00;3.58;;;11.00;99.90;;;;;;5114266;28;20126;-70
2023/05/27 06:47:14;;;;;;;29.05;3.13;;;11.10;99.90;;;;;;5114174;28;20050;-70
2023/05/27 06:49:40;;;;;;;26.40;4.97;;;11.20;99.90;;;;;;5114224;28;20397;-69
2023/05/27 06:52:06;;;;;;;28.15;8.45;;;11.30;99.90;;;;;;5079215;28;20047;-73
2023/05/27 06:54:32;;;;;;;20.42;6.35;;;11.40;99.90;;;;;;5114634;28;20042;-70
2023/05/27 06:56:58;;;;;;;17.85;4.38;;;11.50;99.90;;;;;;5114119;28;20043;-71
2023/05/27 06:59:23;;;;;;;21.98;6.47;;;11.60;99.90;;;;;;5095714;28;20054;-74
2023/05/27 07:01:49;;;;;;;29.95;3.92;;;11.70;99.90;;;;;;5113698;28;20108;-71
2023/05/27 07:04:16;;;;;;;24.70;3.87;;;12.00;99.90;;;;;;5096691;28;20047;-70
2023/05/27 07:06:43;;;;;;;21.67;3.30;;;11.80;99.90;;;;;;5095499;28;20059;-70
2023/05/27 07:09:09;;;;;;;;;;;11.80;99.90;;;;;;5114286;28;20051;-71
2023/05/27 07:11:35;;;;;;;17.15;3.47;;;11.80;99.90;;;;;;5078882;28;20365;-70
2023/05/27 07:14:01;;;;;;;21.85;3.85;;;11.90;99.90;;;;;;5095740;28;20092;-71
2023/05/27 07:16:26;;;;;;;19.67;4.32;;;12.00;99.90;;;;;;5078956;28;20396;-72
2023/05/27 07:18:52;;;;;;;24.00;3.47;;;12.10;99.90;;;;;;5114379;28;20047;-70
2023/05/27 07:21:18;;;;;;;15.30;2.92;;;12.20;99.90;;;;;;5113690;28;20382;-70
2023/05/27 07:23:43;;;;;;;21.33;3.35;;;12.20;99.90;;;;;;5113989;28;20130;-73
2023/05/27 07:26:09;;;;;;;16.50;4.30;;;12.30;99.90;;;;;;5095173;28;20484;-75
2023/05/27 07:28:37;;;;;;;22.15;4.00;;;12.40;99.90;;;;;;5114249;28;20093;-72
2023/05/27 07:31:03;;;;;;;24.27;4.38;;;12.50;99.90;;;;;;5113884;28;20473;-74
2023/05/27 07:33:29;;;;;;;17.88;4.18;;;12.60;99.90;;;;;;5113496;28;20420;-74
2023/05/27 07:35:55;;;;;;;20.55;3.55;;;12.70;99.90;;;;;;5095769;28;20043;-73
2023/05/27 07:38:20;;;;;;;17.55;3.05;;;12.80;99.90;;;;;;5113975;28;20094;-72
2023/05/27 07:40:46;;;;;;;24.10;4.95;;;12.90;99.90;;;;;;5114306;28;20047;-71
2023/05/27 07:43:12;;;;;;;18.50;3.95;;;13.00;99.90;;;;;;5096099;28;20083;-72
2023/05/27 07:45:38;;;;;;;18.48;3.72;;;12.90;99.90;;;;;;5113498;28;20046;-71
2023/05/27 07:48:03;;;;;;;21.45;5.20;;;13.00;99.90;;;;;;5113416;28;20044;-72
2023/05/27 07:50:29;;;;;;;18.13;3.83;;;13.10;99.90;;;;;;5113339;28;20050;-70
2023/05/27 07:52:55;;;;;;;21.42;4.13;;;13.20;99.90;;;;;;5113456;28;20168;-70
2023/05/27 07:55:21;;;;;;;22.75;4.88;;;13.20;99.90;;;;;;5113275;28;20043;-69
2023/05/27 07:57:46;;;;;;;19.13;4.80;;;13.20;99.90;;;;;;5078429;28;20087;-70
2023/05/27 08:00:12;;;;;;;16.88;4.68;;;13.20;99.90;;;;;;5095003;28;20062;-71
2023/05/27 08:02:38;;;;;;;14.65;3.47;;;13.40;99.90;;;;;;5078354;28;20148;-73
2023/05/27 08:05:04;;;;;;;23.73;4.28;;;13.50;99.90;;;;;;5094503;28;20097;-71
2023/05/27 08:07:31;;;;;;;27.80;4.20;;;13.60;99.90;;;;;;5078754;28;20120;-68
2023/05/27 08:09:56;;;;;;;18.60;3.80;;;13.60;99.90;;;;;;5113779;28;20126;-70
2023/05/27 08:12:22;;;;;;;19.30;3.83;;;13.60;99.90;;;;;;5095281;28;20190;-71
2023/05/27 08:14:48;;;;;;;17.60;4.50;;;13.70;99.90;;;;;;5113239;28;20408;-73
2023/05/27 08:17:14;;;;;;;18.25;4.07;;;13.80;99.90;;;;;;5095993;28;20437;-70
2023/05/27 08:19:40;;;;;;;22.33;4.40;;;13.90;99.90;;;;;;5113165;28;20040;-71
2023/05/27 08:22:08;;;;;;;19.13;4.15;;;13.90;99.90;;;;;;5113314;28;20456;-70
2023/05/27 08:24:34;;;;;;;20.13;4.20;;;14.00;99.90;;;;;;5113776;28;20379;-72
2023/05/27 08:27:02;;;;;;;18.25;4.68;;;14.10;99.90;;;;;;5094522;28;20500;-70
2023/05/27 08:29:30;;;;;;;21.25;4.63;;;14.30;99.90;;;;;;5095764;28;20080;-71
2023/05/27 08:31:56;;;;;;;17.17;4.30;;;14.30;99.90;;;;;;5098645;28;20126;-70
2023/05/27 08:34:22;;;;;;;19.15;4.18;;;14.40;99.90;;;;;;5116815;28;20540;-71
2023/05/27 08:36:48;;;;;;;16.65;4.30;;;14.50;99.90;;;;;;5098530;28;20035;-70
2023/05/27 08:39:14;;;;;;;23.63;4.63;;;14.30;99.90;;;;;;5098537;28;20047;-71
2023/05/27 08:41:40;;;;;;;18.38;4.93;;;14.40;99.90;;;;;;5098517;28;20135;-71
2023/05/27 08:44:06;;;;;;;17.15;4.03;;;14.50;99.90;;;;;;5116528;28;20047;-73
2023/05/27 08:46:33;;;;;;;23.48;4.10;;;14.60;99.90;;;;;;5097856;28;20079;-71
2023/05/27 08:48:59;;;;;;;23.10;4.00;;;14.70;99.90;;;;;;5116410;28;20047;-69
2023/05/27 08:51:27;;;;;;;18.05;3.97;;;14.90;99.90;;;;;;5065534;28;20048;-71
2023/05/27 08:53:52;;;;;;;22.50;4.18;;;15.00;99.90;;;;;;5098133;28;20055;-71
2023/05/27 08:56:23;;;;;;;20.98;4.50;;;15.00;99.90;;;;;;5098214;28;20449;-71
2023/05/27 08:58:48;;;;;;;19.67;4.35;;;15.00;99.90;;;;;;5098556;28;20055;-70
2023/05/27 09:01:18;;;;;;;18.42;3.92;;;15.10;99.90;;;;;;5098240;28;20070;-70
2023/05/27 09:03:45;;;;;;;15.98;4.50;;;15.20;99.90;;;;;;5098019;28;20389;-70
2023/05/27 09:06:11;;;;;;;17.30;4.53;;;15.20;99.90;;;;;;5097933;28;20048;-72
2023/05/27 09:08:37;;;;;;;21.80;5.03;;;15.30;99.90;;;;;;5097871;28;20164;-72
2023/05/27 09:11:02;;;;;;;19.83;4.10;;;15.20;99.90;;;;;;5116852;28;20075;-70
2023/05/27 09:13:31;;;;;;;18.50;4.55;;;15.30;99.90;;;;;;5116499;28;20044;-70
2023/05/27 09:16:05;;;;;;;19.25;4.05;;;15.20;99.90;;;;;;5097872;28;20070;-71
2023/05/27 09:18:35;;;;;;;24.50;4.50;;;15.20;99.90;;;;;;5097946;28;20138;-70
2023/05/27 09:21:01;;;;;;;22.90;5.22;;;15.40;99.90;;;;;;5081683;28;20054;-71
2023/05/27 09:23:27;;;;;;;20.42;4.43;;;15.30;99.90;;;;;;5080533;28;20048;-71
2023/05/27 09:25:53;;;;;;;16.97;4.20;;;15.50;99.90;;;;;;5097912;28;20047;-71
2023/05/27 09:28:26;;;;;;;21.40;4.45;;;15.60;99.90;;;;;;5115741;28;20503;-71
2023/05/27 09:31:04;;;;;;;23.38;4.85;;;15.60;99.90;;;;;;5114646;28;20074;-72
2023/05/27 09:33:32;;;;;;;24.65;5.30;;;15.70;99.90;;;;;;5081046;28;20445;-70
2023/05/27 09:35:59;;;;;;;19.85;4.25;;;15.90;99.90;;;;;;5116131;28;20104;-69
2023/05/27 09:38:29;;;;;;;17.20;4.25;;;15.90;99.90;;;;;;5115656;28;20083;-71
2023/05/27 09:40:54;;;;;;;15.48;4.03;;;16.00;99.90;;;;;;5097094;28;20054;-71
2023/05/27 09:43:20;;;;;;;18.65;4.32;;;16.10;99.90;;;;;;5080334;28;20043;-69
2023/05/27 09:45:46;;;;;;;20.05;4.55;;;16.20;99.90;;;;;;5097036;28;20040;-72
2023/05/27 09:48:15;;;;;;;16.30;4.22;;;16.30;99.90;;;;;;5097704;28;20043;-71
2023/05/27 09:50:41;;;;;;;17.10;3.97;;;16.30;99.90;;;;;;5097574;28;20049;-69
2023/05/27 09:53:08;;;;;;;16.92;4.50;;;16.30;99.90;;;;;;5080302;28;20048;-71
2023/05/27 09:55:34;;;;;;;17.77;4.55;;;16.10;99.90;;;;;;5097423;28;20051;-72
2023/05/27 09:58:01;;;;;;;19.13;4.60;;;16.30;99.90;;;;;;5115086;28;20035;-69
2023/05/27 10:00:28;;;;;;;20.98;4.05;;;16.30;99.90;;;;;;5080341;28;20047;-71
2023/05/27 10:02:57;;;;;;;18.08;4.38;;;16.40;99.90;;;;;;5096871;28;20044;-69
2023/05/27 10:05:23;;;;;;;20.15;4.88;;;16.50;99.90;;;;;;5114585;28;20459;-72
2023/05/27 10:07:49;;;;;;;18.30;4.07;;;16.50;99.90;;;;;;5115543;28;20047;-73
2023/05/27 10:10:17;;;;;;;19.10;4.05;;;16.50;99.90;;;;;;5096815;28;20043;-69
2023/05/27 10:12:45;;;;;;;15.80;4.65;;;16.60;99.90;;;;;;5097082;28;20452;-69
2023/05/27 10:15:24;;;;;;;16.52;4.97;;;16.70;99.90;;;;;;5096858;28;20043;-69
2023/05/27 10:17:55;;;;;;;19.02;4.68;;;;;;;;;;5096645;28;20043;-69
2023/05/27 10:20:42;;;;;;;21.23;4.10;;;16.70;99.90;;;;;;5114765;28;20039;-69
2023/05/27 10:23:28;;;;;;;18.92;4.60;;;16.80;99.90;;;;;;5063987;28;20048;-69
2023/05/27 10:25:57;;;;;;;18.07;4.57;;;16.80;99.90;;;;;;5115290;28;20451;-70
2023/05/27 10:28:37;;;;;;;21.88;4.55;;;17.00;99.90;;;;;;5114569;28;20040;-71
2023/05/27 10:31:16;;;;;;;17.30;4.40;;;17.20;99.90;;;;;;5114801;28;20047;-70
2023/05/27 10:33:47;;;;;;;15.88;4.32;;;17.30;99.90;;;;;;5115252;28;20389;-74
2023/05/27 10:36:31;;;;;;;16.98;4.10;;;17.30;99.90;;;;;;5096798;28;20032;-72
2023/05/27 10:39:13;;;;;;;18.90;4.15;;;17.40;99.90;;;;;;5114639;28;20126;-70
2023/05/27 10:41:43;;;;;;;15.10;4.25;;;17.50;99.90;;;;;;5063570;28;20349;-72
2023/05/27 10:44:10;;;;;;;18.25;4.55;;;17.60;99.90;;;;;;5096248;28;20435;-71
2023/05/27 10:46:43;;;;;;;;;;;17.60;99.90;;;;;;5096455;28;20364;-73
2023/05/27 10:49:13;;;;;;;24.77;5.50;;;17.60;99.90;;;;;;5114293;28;19955;-72
2023/05/27 10:51:39;;;;;;;22.05;5.25;;;17.60;99.90;;;;;;5114176;28;20042;-72
2023/05/27 10:54:06;;;;;;;23.20;4.60;;;17.60;99.90;;;;;;5113963;28;20050;-70
2023/05/27 10:56:32;;;;;;;16.23;4.82;;;17.70;99.90;;;;;;5096677;28;20127;-72
2023/05/27 10:59:01;;;;;;;14.90;4.27;;;17.70;99.90;;;;;;5096041;28;20079;-70
2023/05/27 11:01:31;;;;;;;20.10;5.68;;;17.80;99.90;;;;;;5096304;28;20090;-71
2023/05/27 11:03:58;;;;;;;18.98;4.53;;;17.60;99.90;;;;;;5096053;28;20047;-72
2023/05/27 11:06:25;;;;;;;20.95;4.75;;;17.80;99.90;;;;;;5095700;28;20051;-71
2023/05/27 11:08:50;;;;;;;17.73;4.18;;;18.00;99.90;;;;;;5114439;28;20396;-70
2023/05/27 11:11:16;;;;;;;18.27;5.28;;;18.10;99.90;;;;;;5114025;28;20059;-71
2023/05/27 11:13:43;;;;;;;17.70;4.50;;;18.20;99.90;;;;;;5113749;28;20043;-71
2023/05/27 11:16:10;;;;;;;20.73;4.80;;;18.00;99.90;;;;;;5113816;28;20039;-70
2023/05/27 11:18:45;;;;;;;18.88;4.30;;;18.00;99.90;;;;;;5113780;28;20043;-71
2023/05/27 11:21:12;;;;;;;19.63;4.30;;;18.00;99.90;;;;;;5113748;28;20043;-70
2023/05/27 11:23:48;;;;;;;10.82;3.45;;;18.20;99.90;;;;;;5095491;28;20046;-78
2023/05/27 11:26:25;;;;;;;12.85;3.90;;;18.20;99.90;;;;;;5095275;28;20036;-70
2023/05/27 11:28:52;;;;;;;;;;;18.30;99.90;;;;;;5096566;28;20041;-70
2023/05/27 11:31:21;;;;;;;18.75;3.97;;;18.30;99.90;;;;;;5113524;28;19926;-72
2023/05/27 11:33:50;;;;;;;16.70;4.13;;;18.30;99.50;;;;;;5113577;28;20043;-72
2023/05/27 11:36:16;;;;;;;20.52;4.78;;;18.40;99.90;;;;;;5114071;28;20356;-72
2023/05/27 11:38:48;;;;;;;19.10;4.33;;;18.50;99.90;;;;;;5096351;28;20046;-72
2023/05/27 11:41:14;;;;;;;21.50;4.53;;;18.60;99.90;;;;;;5095871;28;20101;-71
2023/05/27 11:43:47;;;;;;;15.47;4.20;;;18.60;99.40;;;;;;5095572;28;20039;-70
2023/05/27 11:46:13;;;;;;;15.73;4.40;;;18.70;99.70;;;;;;5113436;28;20047;-72
2023/05/27 11:48:39;;;;;;;16.67;4.10;;;18.70;99.70;;;;;;5095249;28;20052;-71
2023/05/27 11:51:05;;;;;;;15.63;4.00;;;18.90;99.90;;;;;;5095317;28;20039;-73
2023/05/27 11:53:30;;;;;;;18.20;4.07;;;18.90;99.60;;;;;;5095189;28;20047;-72
2023/05/27 11:55:56;;;;;;;16.17;3.50;;;19.00;99.70;;;;;;5095118;28;20180;-73
2023/05/27 11:58:22;;;;;;;18.93;3.87;;;19.10;99.90;;;;;;5113415;28;20044;-72
2023/05/27 12:00:47;;;;;;;13.53;3.50;;;19.10;99.90;;;;;;5095356;28;20108;-74
2023/05/27 12:03:13;;;;;;;15.00;4.20;;;19.20;98.80;;;;;;5095506;28;20040;-70
2023/05/27 12:05:39;;;;;;;16.70;4.00;;;19.20;99.50;;;;;;5116211;28;20056;-72
2023/05/27 12:08:05;;;;;;;16.67;3.73;;;19.30;99.80;;;;;;5118014;28;20468;-71
2023/05/27 12:10:30;;;;;;;16.13;3.80;;;19.40;99.90;;;;;;5117407;28;20047;-72
2023/05/27 12:13:06;;;;;;;15.57;4.07;;;19.50;99.80;;;;;;5117646;28;20043;-75
2023/05/27 12:15:32;;;;;;;16.52;3.90;;;19.60;99.30;;;;;;5117158;28;20081;-73
2023/05/27 12:17:58;;;;;;;14.55;4.55;;;19.50;95.50;;;;;;5098772;28;20045;-75
2023/05/27 12:20:28;;;;;;;17.07;4.20;;;19.50;97.20;;;;;;5117140;28;20122;-73
2023/05/27 12:22:55;;;;;;;14.57;3.97;;;19.60;97.80;;;;;;5099423;28;20036;-73
2023/05/27 12:25:21;;;;;;;16.20;4.43;;;19.70;98.20;;;;;;5099041;28;20047;-70
2023/05/27 12:27:47;;;;;;;13.90;4.13;;;19.80;97.50;;;;;;5081719;28;20039;-73
2023/05/27 12:30:13;;;;;;;15.53;3.67;;;19.80;97.50;;;;;;5099421;28;20432;-72
2023/05/27 12:32:39;;;;;;;16.45;3.63;;;19.70;95.30;;;;;;5117065;28;20039;-71
2023/05/27 12:35:05;;;;;;;15.43;3.92;;;19.70;96.80;;;;;;5117131;28;20048;-73
2023/05/27 12:37:31;;;;;;;14.48;4.10;;;19.90;97.00;;;;;;5098675;28;20051;-71
2023/05/27 12:39:57;;;;;;;15.93;3.87;;;20.00;96.80;;;;;;5082530;28;20130;-69
2023/05/27 12:42:23;;;;;;;30.47;4.83;;;20.10;96.30;;;;;;5081718;28;20048;-71